createdAt,value
2019-01-20T09:37:28.069Z,31.07
2019-01-20T09:39:56.178Z,31.65
2019-01-20T09:42:28.647Z,31.45
2019-01-20T09:45:00.089Z,29.00
2019-01-20T09:49:55.729Z,32.17
2019-01-20T09:52:24.911Z,33.50
2019-01-20T09:54:52.987Z,26.77
2019-01-20T09:57:21.094Z,28.85
2019-01-20T09:59:49.662Z,29.63
2019-01-20T10:02:17.749Z,32.95
2019-01-20T10:04:46.161Z,28.10
2019-01-20T10:07:14.335Z,31.37
2019-01-20T10:09:42.433Z,35.33
2019-01-20T10:12:10.559Z,29.50
2019-01-20T10:14:38.651Z,27.42
2019-01-20T10:17:07.409Z,30.77
2019-01-20T10:19:35.520Z,26.25
2019-01-20T10:22:03.988Z,26.95
2019-01-20T10:24:32.119Z,29.50
2019-01-20T10:27:01.246Z,30.37
2019-01-20T10:29:31.454Z,30.75
2019-01-20T10:32:02.626Z,30.88
2019-01-20T10:34:35.686Z,25.72
2019-01-20T10:37:04.191Z,27.27
2019-01-20T10:39:33.988Z,27.52
2019-01-20T10:42:06.505Z,28.25
2019-01-20T10:44:34.640Z,27.52
2019-01-20T10:47:07.392Z,30.12
2019-01-20T10:49:35.471Z,27.62
2019-01-20T10:52:04.414Z,26.33
2019-01-20T10:54:35.300Z,29.75
2019-01-20T10:57:03.441Z,27.75
2019-01-20T10:59:31.584Z,28.65
2019-01-20T11:01:59.710Z,25.35
2019-01-20T11:04:30.346Z,29.32
2019-01-20T11:06:59.776Z,30.80
2019-01-20T11:09:29.578Z,29.82
2019-01-20T11:11:57.678Z,26.50
2019-01-20T11:14:25.810Z,30.12
2019-01-20T11:16:53.907Z,28.92
2019-01-20T11:19:23.791Z,24.67
2019-01-20T11:21:51.897Z,31.07
2019-01-20T11:24:20.010Z,25.15
2019-01-20T11:26:48.114Z,26.27
2019-01-20T11:29:17.842Z,23.07
2019-01-20T11:31:45.935Z,22.95
2019-01-20T11:34:14.044Z,23.12
2019-01-20T11:36:46.902Z,23.38
2019-01-20T11:39:14.732Z,18.55
2019-01-20T11:41:42.827Z,21.77
2019-01-20T11:44:16.861Z,21.30
2019-01-20T11:46:47.713Z,22.35
2019-01-20T11:49:15.825Z,23.92
2019-01-20T11:51:43.985Z,21.77
2019-01-20T11:54:13.754Z,23.22
2019-01-20T11:56:41.920Z,27.42
2019-01-20T11:59:17.336Z,24.80
2019-01-20T12:01:45.449Z,26.45
2019-01-20T12:04:13.547Z,24.65
2019-01-20T12:06:41.922Z,23.55
2019-01-20T12:09:10.477Z,24.95
2019-01-20T12:11:38.644Z,30.75
2019-01-20T12:14:06.824Z,23.12
2019-01-20T12:16:37.839Z,24.77
2019-01-20T12:19:06.007Z,26.87
2019-01-20T12:21:34.226Z,24.47
2019-01-20T12:24:02.393Z,25.92
2019-01-20T12:26:30.481Z,26.05
2019-01-20T12:29:03.151Z,22.05
2019-01-20T12:31:33.973Z,24.95
2019-01-20T12:34:03.581Z,25.40
2019-01-20T12:36:33.309Z,23.12
2019-01-20T12:39:01.419Z,26.77
2019-01-20T12:41:32.961Z,25.23
2019-01-20T12:44:01.068Z,22.22
2019-01-20T12:46:31.053Z,22.30
2019-01-20T12:48:59.223Z,26.70
2019-01-20T12:51:28.660Z,21.82
2019-01-20T12:53:57.050Z,20.55
2019-01-20T12:56:25.195Z,25.32
2019-01-20T12:58:53.281Z,20.10
2019-01-20T13:01:21.377Z,19.05
2019-01-20T13:03:51.325Z,21.00
2019-01-20T13:06:19.433Z,19.65
2019-01-20T13:08:47.534Z,19.32
2019-01-20T13:11:15.672Z,20.08
2019-01-20T13:13:51.066Z,22.10
2019-01-20T13:16:19.166Z,19.40
2019-01-20T13:18:47.276Z,18.73
2019-01-20T13:21:20.104Z,16.48
2019-01-20T13:23:48.195Z,16.52
2019-01-20T13:26:20.702Z,17.05
2019-01-20T13:28:48.794Z,19.00
2019-01-20T13:31:21.208Z,22.52
2019-01-20T13:33:54.106Z,23.12
2019-01-20T13:36:22.252Z,16.60
2019-01-20T13:38:50.354Z,15.80
2019-01-20T13:41:21.930Z,21.50
2019-01-20T13:43:50.018Z,20.60
2019-01-20T13:46:18.130Z,20.05
2019-01-20T13:48:46.279Z,22.05
2019-01-20T13:51:16.188Z,19.42
2019-01-20T13:53:47.296Z,21.12
2019-01-20T13:56:16.972Z,18.15
2019-01-20T13:58:45.325Z,19.98
2019-01-20T14:01:13.935Z,21.27
2019-01-20T14:03:42.068Z,21.35
2019-01-20T14:06:11.809Z,20.08
2019-01-20T14:08:44.360Z,20.35
2019-01-20T14:11:10.177Z,17.65
2019-01-20T14:13:38.278Z,20.88
2019-01-20T14:16:06.386Z,20.95
2019-01-20T14:18:34.545Z,20.95
2019-01-20T14:21:02.669Z,23.00
2019-01-20T14:23:33.520Z,19.48
2019-01-20T14:26:01.328Z,20.57
2019-01-20T14:28:29.481Z,19.42
2019-01-20T14:31:01.740Z,23.60
2019-01-20T14:33:29.807Z,20.88
2019-01-20T14:35:57.914Z,21.40
2019-01-20T14:38:28.332Z,20.60
2019-01-20T14:41:02.229Z,25.80
2019-01-20T14:43:30.347Z,21.42
2019-01-20T14:46:00.097Z,21.52
2019-01-20T14:48:28.243Z,20.68
2019-01-20T14:50:56.349Z,19.52
2019-01-20T14:53:24.447Z,20.23
2019-01-20T14:55:54.191Z,19.65
2019-01-20T14:58:26.603Z,18.40
2019-01-20T15:00:55.834Z,17.27
2019-01-20T15:03:24.434Z,19.62
2019-01-20T15:06:02.785Z,21.87
2019-01-20T15:08:34.813Z,20.65
2019-01-20T15:11:06.471Z,21.30
2019-01-20T15:13:36.175Z,19.37
2019-01-20T15:16:04.302Z,23.80
2019-01-20T15:18:32.459Z,20.65
2019-01-20T15:21:00.561Z,22.05
2019-01-20T15:23:28.679Z,41.77
2019-01-20T15:25:58.348Z,32.93
2019-01-20T15:28:28.105Z,25.37
2019-01-20T15:30:59.666Z,25.45
2019-01-20T15:33:27.753Z,23.52
2019-01-20T15:35:55.861Z,21.35
2019-01-20T15:38:32.408Z,26.30
2019-01-20T15:41:00.505Z,21.55
2019-01-20T15:43:32.230Z,26.52
2019-01-20T15:46:00.377Z,22.62
2019-01-20T15:48:33.357Z,22.87
2019-01-20T15:51:01.498Z,25.57
2019-01-20T15:53:32.684Z,27.55
2019-01-20T15:56:01.725Z,21.95
2019-01-20T15:58:32.474Z,24.82
2019-01-20T16:01:00.646Z,22.58
2019-01-20T16:03:35.098Z,22.15
2019-01-20T16:06:03.260Z,26.45
2019-01-20T16:08:31.371Z,28.17
2019-01-20T16:11:01.283Z,21.27
2019-01-20T16:13:29.457Z,20.62
2019-01-20T16:15:59.138Z,25.90
2019-01-20T16:18:27.374Z,24.10
2019-01-20T16:20:55.495Z,24.67
2019-01-20T16:23:23.794Z,25.80
2019-01-20T16:25:51.904Z,20.85
2019-01-20T16:28:21.730Z,22.45
2019-01-20T16:30:49.892Z,20.95
2019-01-20T16:33:24.892Z,23.85
2019-01-20T16:35:52.226Z,21.77
2019-01-20T16:38:21.418Z,23.32
2019-01-20T16:40:49.535Z,22.77
2019-01-20T16:43:19.073Z,21.85
2019-01-20T16:45:47.319Z,23.45
2019-01-20T16:48:15.440Z,21.82
2019-01-20T16:50:43.616Z,22.55
2019-01-20T16:53:11.707Z,22.30
2019-01-20T16:55:41.054Z,21.60
2019-01-20T16:58:09.174Z,23.27
2019-01-20T17:00:38.265Z,20.75
2019-01-20T17:03:06.469Z,28.63
2019-01-20T17:05:37.646Z,23.47
2019-01-20T17:08:05.817Z,23.57
2019-01-20T17:10:41.255Z,25.02
2019-01-20T17:13:09.404Z,24.70
2019-01-20T17:15:42.018Z,21.00
2019-01-20T17:18:11.768Z,23.18
2019-01-20T17:20:39.884Z,24.77
2019-01-20T17:23:07.981Z,25.68
2019-01-20T17:25:36.842Z,22.40
2019-01-20T17:28:06.605Z,23.67
2019-01-20T17:30:36.923Z,20.77
2019-01-20T17:33:06.207Z,26.73
2019-01-20T17:35:34.225Z,28.40
2019-01-20T17:38:04.549Z,25.52
2019-01-20T17:40:32.657Z,23.90
2019-01-20T17:43:00.863Z,24.75
2019-01-20T17:45:33.271Z,28.70
2019-01-20T17:48:02.509Z,28.07
2019-01-20T17:50:31.944Z,25.53
2019-01-20T17:53:02.461Z,27.05
2019-01-20T17:55:30.287Z,25.52
2019-01-20T17:58:01.387Z,26.93
2019-01-20T18:00:33.832Z,29.75
2019-01-20T18:03:02.247Z,29.07
2019-01-20T18:05:31.476Z,28.57
2019-01-20T18:07:59.492Z,29.20
2019-01-20T18:10:27.614Z,30.95
2019-01-20T18:12:57.030Z,31.62
2019-01-20T18:15:27.425Z,29.37
2019-01-20T18:18:00.104Z,30.35
2019-01-20T18:20:29.362Z,28.25
2019-01-20T18:22:57.410Z,30.37
2019-01-20T18:25:25.544Z,32.73
2019-01-20T18:27:53.726Z,29.98
2019-01-20T18:30:22.800Z,32.80
2019-01-20T18:32:56.660Z,31.12
2019-01-20T18:35:26.538Z,30.92
2019-01-20T18:37:54.647Z,29.77
2019-01-20T18:40:23.776Z,32.23
2019-01-20T18:42:53.506Z,31.45
2019-01-20T18:45:33.524Z,28.45
2019-01-20T18:48:02.643Z,33.95
2019-01-20T18:50:34.882Z,34.27
2019-01-20T18:53:04.625Z,35.25
2019-01-20T18:55:33.068Z,32.05
2019-01-20T18:58:01.164Z,32.65
2019-01-20T19:00:30.930Z,35.05
2019-01-20T19:02:59.104Z,35.83
2019-01-20T19:05:27.222Z,72.65
2019-01-20T19:07:55.722Z,44.45
2019-01-20T19:10:25.822Z,33.98
2019-01-20T19:12:56.217Z,36.95
2019-01-20T19:15:24.334Z,35.88
2019-01-20T19:17:52.450Z,33.75
2019-01-20T19:20:21.831Z,37.30
2019-01-20T19:22:50.857Z,38.88
2019-01-20T19:25:18.992Z,39.27
2019-01-20T19:27:47.104Z,33.25
2019-01-20T19:30:16.479Z,41.35
2019-01-20T19:32:44.691Z,39.27
2019-01-20T19:35:13.674Z,43.43
2019-01-20T19:41:08.844Z,39.40
2019-01-20T19:43:36.952Z,44.93
2019-01-20T19:46:05.150Z,39.83
2019-01-20T19:48:34.421Z,36.15
2019-01-20T19:51:02.402Z,38.93
2019-01-20T19:53:33.613Z,35.25
2019-01-20T19:56:01.747Z,35.15
2019-01-20T19:58:29.963Z,37.67
2019-01-20T20:00:59.750Z,34.25
2019-01-20T20:03:27.861Z,38.30
2019-01-20T20:05:58.699Z,36.00
2019-01-20T20:08:26.846Z,36.50
2019-01-20T20:10:55.087Z,43.87
2019-01-20T20:13:23.186Z,40.00
2019-01-20T20:15:54.813Z,40.03
2019-01-20T20:18:22.905Z,43.68
2019-01-20T20:20:53.823Z,41.00
2019-01-20T20:23:21.893Z,35.95
2019-01-20T20:25:50.007Z,35.85
2019-01-20T20:28:20.242Z,39.23
2019-01-20T20:30:50.341Z,38.80
2019-01-20T20:35:47.403Z,38.65
2019-01-20T20:38:15.577Z,43.05
2019-01-20T20:40:43.670Z,36.70
2019-01-20T20:43:11.785Z,40.40
2019-01-20T20:45:39.895Z,39.50
2019-01-20T20:48:08.025Z,42.17
2019-01-20T20:50:36.181Z,41.92
2019-01-20T20:53:04.282Z,45.28
2019-01-20T20:55:32.392Z,39.25
2019-01-20T20:58:02.313Z,41.77
2019-01-20T21:00:32.328Z,38.63
2019-01-20T21:03:02.093Z,42.53
2019-01-20T21:05:34.910Z,40.75
2019-01-20T21:08:03.093Z,49.23
2019-01-20T21:10:31.207Z,44.93
2019-01-20T21:13:01.018Z,41.50
2019-01-20T21:15:29.120Z,41.92
2019-01-20T21:17:57.242Z,45.25
2019-01-20T21:20:25.360Z,41.65
2019-01-20T21:22:55.149Z,45.17
2019-01-20T21:25:26.169Z,45.05
2019-01-20T21:27:54.294Z,43.83
2019-01-20T21:30:29.338Z,49.48
2019-01-20T21:32:57.528Z,44.95
2019-01-20T21:35:25.618Z,47.53
2019-01-20T21:37:53.716Z,41.68
2019-01-20T21:40:24.020Z,40.78
2019-01-20T21:42:51.794Z,42.30
2019-01-20T21:45:21.536Z,41.73
2019-01-20T21:47:51.258Z,48.90
2019-01-20T21:50:23.254Z,43.95
2019-01-20T21:52:52.158Z,48.60
2019-01-20T21:55:20.270Z,45.00
2019-01-20T21:57:48.371Z,45.05
2019-01-20T22:00:20.810Z,44.10
2019-01-20T22:02:50.798Z,46.08
2019-01-20T22:05:18.913Z,46.33
2019-01-20T22:07:47.086Z,42.30
2019-01-20T22:10:21.877Z,50.45
2019-01-20T22:12:51.616Z,37.58
2019-01-20T22:15:22.495Z,44.70
2019-01-20T22:17:50.630Z,49.95
2019-01-20T22:20:20.190Z,51.02
2019-01-20T22:22:48.388Z,42.60
2019-01-20T22:25:17.801Z,40.73
2019-01-20T22:27:48.065Z,46.55
2019-01-20T22:30:20.733Z,42.33
2019-01-20T22:32:48.836Z,47.03
2019-01-20T22:35:17.157Z,45.20
2019-01-20T22:37:45.270Z,48.25
2019-01-20T22:40:14.389Z,45.52
2019-01-20T22:42:42.458Z,42.48
2019-01-20T22:45:12.156Z,42.30
2019-01-20T22:47:43.153Z,50.58
2019-01-20T22:50:12.089Z,42.90
2019-01-20T22:52:40.294Z,44.20
2019-01-20T22:55:09.859Z,45.55
2019-01-20T22:57:38.705Z,49.03
2019-01-20T23:00:11.385Z,44.53
2019-01-20T23:02:39.484Z,47.05
2019-01-20T23:05:10.650Z,49.15
2019-01-20T23:07:41.523Z,58.15
2019-01-20T23:10:11.399Z,56.88
2019-01-20T23:12:39.794Z,51.45
2019-01-20T23:15:09.163Z,51.60
2019-01-20T23:17:38.022Z,47.38
2019-01-20T23:20:10.475Z,49.93
2019-01-20T23:22:38.613Z,55.60
2019-01-20T23:25:06.779Z,49.33
2019-01-20T23:27:37.443Z,48.48
2019-01-20T23:30:07.459Z,47.00
2019-01-20T23:32:39.909Z,45.90
2019-01-20T23:35:08.066Z,46.80
2019-01-20T23:37:48.588Z,47.13
2019-01-20T23:40:18.079Z,41.18
2019-01-20T23:42:46.248Z,45.48
2019-01-20T23:45:15.982Z,45.70
2019-01-20T23:47:44.108Z,48.30
2019-01-20T23:50:13.139Z,49.13
2019-01-20T23:52:41.243Z,50.05
2019-01-20T23:55:10.669Z,47.93
2019-01-20T23:57:38.777Z,54.93
